createdAt,value
2018-09-04T00:02:11.639Z,96513.00
2018-09-04T00:04:39.027Z,96503.55
2018-09-04T00:07:06.405Z,96498.72
2018-09-04T00:09:33.750Z,96500.73
2018-09-04T00:12:01.090Z,96500.30
2018-09-04T00:14:28.455Z,96499.34
2018-09-04T00:16:55.784Z,96505.05
2018-09-04T00:19:23.061Z,96491.93
2018-09-04T00:21:50.327Z,96499.56
2018-09-04T00:24:17.578Z,96496.36
2018-09-04T00:26:44.891Z,96493.50
2018-09-04T00:29:12.174Z,96493.24
2018-09-04T00:31:39.564Z,96491.27
2018-09-04T00:34:06.769Z,96489.51
2018-09-04T00:36:34.086Z,96488.11
2018-09-04T00:39:01.353Z,96481.31
2018-09-04T00:41:28.623Z,96486.33
2018-09-04T00:43:55.888Z,96491.92
2018-09-04T00:46:23.172Z,96483.23
2018-09-04T00:48:50.437Z,96489.34
2018-09-04T00:51:17.667Z,96494.23
2018-09-04T00:53:45.058Z,96500.06
2018-09-04T00:56:12.371Z,96493.97
2018-09-04T00:58:39.633Z,96498.62
2018-09-04T01:01:07.189Z,96496.97
2018-09-04T01:03:34.458Z,96494.45
2018-09-04T01:06:03.312Z,96491.73
2018-09-04T01:08:30.613Z,96491.59
2018-09-04T01:10:57.988Z,96489.58
2018-09-04T01:13:25.330Z,96494.45
2018-09-04T01:15:52.601Z,96499.59
2018-09-04T01:18:19.866Z,96494.25
2018-09-04T01:20:47.166Z,96501.97
2018-09-04T01:23:14.405Z,96500.80
2018-09-04T01:25:41.636Z,96497.93
2018-09-04T01:28:09.406Z,96503.78
2018-09-04T01:30:36.685Z,96502.12
2018-09-04T01:33:04.218Z,96501.86
2018-09-04T01:35:31.607Z,96509.14
2018-09-04T01:37:58.889Z,96507.00
2018-09-04T01:40:26.107Z,96501.89
2018-09-04T01:42:53.402Z,96500.71
2018-09-04T01:45:20.817Z,96505.12
2018-09-04T01:47:48.272Z,96499.62
2018-09-04T01:50:15.582Z,96506.53
2018-09-04T01:52:42.826Z,96501.55
2018-09-04T01:55:10.149Z,96507.39
2018-09-04T01:59:57.180Z,96504.30
2018-09-04T02:02:24.479Z,96502.40
2018-09-04T02:04:51.735Z,96502.52
2018-09-04T02:07:19.037Z,96500.84
2018-09-04T02:09:46.345Z,96503.69
2018-09-04T02:12:13.654Z,96505.02
2018-09-04T02:14:40.987Z,96503.83
2018-09-04T02:17:08.471Z,96502.28
2018-09-04T02:19:35.747Z,96499.53
2018-09-04T02:22:03.083Z,96496.91
2018-09-04T02:24:30.412Z,96496.09
2018-09-04T02:26:57.676Z,96496.91
2018-09-04T02:29:24.944Z,96497.27
2018-09-04T02:31:52.263Z,96496.09
2018-09-04T02:34:19.554Z,96489.30
2018-09-04T02:36:46.846Z,96489.74
2018-09-04T02:39:14.168Z,96492.37
2018-09-04T02:41:41.547Z,96492.72
2018-09-04T02:44:08.969Z,96494.28
2018-09-04T02:46:36.581Z,96501.75
2018-09-04T02:49:03.936Z,96498.91
2018-09-04T02:51:31.244Z,96499.02
2018-09-04T02:53:58.551Z,96504.61
2018-09-04T02:56:25.842Z,96501.05
2018-09-04T02:58:59.475Z,96498.19
2018-09-04T03:01:26.917Z,96499.35
2018-09-04T03:03:54.140Z,96494.58
2018-09-04T03:06:21.429Z,96492.00
2018-09-04T03:08:48.679Z,96496.74
2018-09-04T03:11:16.054Z,96493.88
2018-09-04T03:13:43.354Z,96493.17
2018-09-04T03:16:10.549Z,96495.57
2018-09-04T03:18:37.882Z,96499.71
2018-09-04T03:23:57.723Z,96507.45
2018-09-04T03:26:25.045Z,96506.14
2018-09-04T03:28:52.242Z,96503.88
2018-09-04T03:31:19.519Z,96507.06
2018-09-04T03:33:46.866Z,96503.49
2018-09-04T03:36:14.175Z,96495.78
2018-09-04T03:38:41.401Z,96495.15
2018-09-04T03:41:08.713Z,96494.93
2018-09-04T03:43:35.972Z,96500.77
2018-09-04T03:46:03.259Z,96501.93
2018-09-04T03:48:30.563Z,96502.23
2018-09-04T03:50:57.814Z,96506.50
2018-09-04T03:53:25.052Z,96515.79
2018-09-04T03:55:52.305Z,96518.27
2018-09-04T03:58:19.592Z,96518.16
2018-09-04T04:00:46.831Z,96506.14
2018-09-04T04:03:14.129Z,96509.02
2018-09-04T04:05:41.387Z,96513.89
2018-09-04T04:08:08.667Z,96505.70
2018-09-04T04:10:35.967Z,96511.19
2018-09-04T04:13:03.624Z,96511.64
2018-09-04T04:15:31.134Z,96512.13
2018-09-04T04:17:58.435Z,96516.16
2018-09-04T04:20:25.771Z,96521.39
2018-09-04T04:22:53.077Z,96524.01
2018-09-04T04:25:20.344Z,96517.37
2018-09-04T04:27:47.643Z,96520.84
2018-09-04T04:30:14.978Z,96520.08
2018-09-04T04:32:42.373Z,96520.78
2018-09-04T04:35:09.754Z,96530.39
2018-09-04T04:37:36.974Z,96528.28
2018-09-04T04:40:04.853Z,96534.31
2018-09-04T04:42:32.072Z,96540.39
2018-09-04T04:44:59.307Z,96538.84
2018-09-04T04:47:32.198Z,96532.55
2018-09-04T04:49:59.455Z,96534.22
2018-09-04T04:52:26.798Z,96536.53
2018-09-04T04:54:54.080Z,96538.80
2018-09-04T04:57:21.310Z,96538.27
2018-09-04T04:59:48.557Z,96546.47
2018-09-04T05:02:15.806Z,96540.64
2018-09-04T05:04:43.123Z,96538.63
2018-09-04T05:07:10.398Z,96537.08
2018-09-04T05:09:37.706Z,96539.95
2018-09-04T05:12:05.299Z,96536.48
2018-09-04T05:14:32.540Z,96539.58
2018-09-04T05:16:59.806Z,96541.09
2018-09-04T05:19:27.062Z,96547.12
2018-09-04T05:21:54.321Z,96553.36
2018-09-04T05:24:21.650Z,96556.94
2018-09-04T05:26:48.904Z,96557.05
2018-09-04T05:29:16.563Z,96559.45
2018-09-04T05:31:47.201Z,96528.56
2018-09-04T05:34:14.516Z,96553.98
2018-09-04T05:36:41.839Z,96554.84
2018-09-04T05:39:09.745Z,96558.16
2018-09-04T05:41:37.049Z,96559.83
2018-09-04T05:44:04.423Z,96555.34
2018-09-04T05:46:37.451Z,96563.05
2018-09-04T05:49:04.938Z,96571.94
2018-09-04T05:51:32.244Z,96561.98
2018-09-04T05:53:59.889Z,96565.31
2018-09-04T05:56:27.218Z,96570.09
2018-09-04T05:58:54.490Z,96575.12
2018-09-04T06:01:21.902Z,96575.13
2018-09-04T06:03:49.173Z,96579.20
2018-09-04T06:06:16.521Z,96587.66
2018-09-04T06:08:43.818Z,96579.67
2018-09-04T06:11:11.108Z,96579.59
2018-09-04T06:13:38.426Z,96581.75
2018-09-04T06:16:05.763Z,96585.79
2018-09-04T06:18:33.017Z,96588.08
2018-09-04T06:21:00.310Z,96586.20
2018-09-04T06:23:27.748Z,96576.18
2018-09-04T06:25:55.013Z,96582.50
2018-09-04T06:28:22.303Z,96583.22
2018-09-04T06:30:49.665Z,96578.32
2018-09-04T06:33:17.050Z,96585.00
2018-09-04T06:35:44.332Z,96588.20
2018-09-04T06:38:11.635Z,96597.22
2018-09-04T06:40:38.917Z,96598.44
2018-09-04T06:43:06.186Z,96599.58
2018-09-04T06:45:33.523Z,96591.70
2018-09-04T06:48:00.833Z,96600.27
2018-09-04T06:50:28.115Z,96597.04
2018-09-04T06:52:55.338Z,96591.69
2018-09-04T06:55:22.590Z,96595.40
2018-09-04T06:57:49.853Z,96593.61
2018-09-04T07:00:17.091Z,96598.35
2018-09-04T07:02:44.354Z,96595.28
2018-09-04T07:05:12.051Z,96592.55
2018-09-04T07:07:39.419Z,96592.03
2018-09-04T07:10:06.939Z,96592.27
2018-09-04T07:12:34.212Z,96590.89
2018-09-04T07:15:01.655Z,96584.16
2018-09-04T07:17:28.894Z,96587.20
2018-09-04T07:19:56.229Z,96589.08
2018-09-04T07:22:23.525Z,96588.59
2018-09-04T07:24:50.811Z,96596.16
2018-09-04T07:27:18.099Z,96597.89
2018-09-04T07:29:45.389Z,96593.73
2018-09-04T07:32:12.676Z,96591.16
2018-09-04T07:34:39.966Z,96591.16
2018-09-04T07:37:07.209Z,96589.41
2018-09-04T07:39:34.535Z,96593.57
2018-09-04T07:42:01.909Z,96593.48
2018-09-04T07:44:29.132Z,96587.41
2018-09-04T07:46:56.401Z,96586.27
2018-09-04T07:49:23.697Z,96585.92
2018-09-04T07:51:50.972Z,96581.39
2018-09-04T07:54:18.248Z,96578.23
2018-09-04T07:56:45.522Z,96578.89
2018-09-04T07:59:12.812Z,96581.88
2018-09-04T08:01:40.064Z,96578.91
2018-09-04T08:04:07.350Z,96579.00
2018-09-04T08:06:34.613Z,96586.83
2018-09-04T08:09:01.935Z,96593.11
2018-09-04T08:11:29.313Z,96582.67
2018-09-04T08:13:56.541Z,96568.63
2018-09-04T08:16:23.866Z,96578.80
2018-09-04T08:18:51.215Z,96565.15
2018-09-04T08:21:18.501Z,96566.95
2018-09-04T08:23:45.780Z,96568.97
2018-09-04T08:26:13.077Z,96563.15
2018-09-04T08:28:40.304Z,96563.98
2018-09-04T08:31:07.562Z,96561.00
2018-09-04T08:33:34.864Z,96556.31
2018-09-04T08:36:02.152Z,96555.97
2018-09-04T08:38:29.413Z,96549.70
2018-09-04T08:40:56.687Z,96550.39
2018-09-04T08:43:24.025Z,96547.20
2018-09-04T08:45:51.408Z,96560.66
2018-09-04T08:48:20.780Z,96561.83
2018-09-04T08:50:49.972Z,96558.64
2018-09-04T08:53:18.446Z,96554.61
2018-09-04T08:55:45.762Z,96559.50
2018-09-04T08:58:13.058Z,96547.55
2018-09-04T09:00:40.432Z,96550.56
2018-09-04T09:03:08.092Z,96547.11
2018-09-04T09:05:35.675Z,96544.64
2018-09-04T09:08:02.905Z,96538.58
2018-09-04T09:10:30.184Z,96535.95
2018-09-04T09:12:57.497Z,96538.90
2018-09-04T09:15:24.769Z,96535.31
2018-09-04T09:17:52.069Z,96538.28
2018-09-04T09:20:19.344Z,96535.52
2018-09-04T09:22:46.666Z,96540.59
2018-09-04T09:25:13.978Z,96536.83
2018-09-04T09:27:41.349Z,96537.00
2018-09-04T09:30:08.657Z,96535.39
2018-09-04T09:32:35.915Z,96539.81
2018-09-04T09:35:03.282Z,96543.59
2018-09-04T09:37:30.619Z,96539.48
2018-09-04T09:39:57.973Z,96537.32
2018-09-04T09:42:25.272Z,96543.67
2018-09-04T09:44:52.569Z,96537.20
2018-09-04T09:47:19.903Z,96537.00
2018-09-04T09:49:47.275Z,96533.27
2018-09-04T09:52:14.559Z,96536.80
2018-09-04T09:54:42.412Z,96534.27
2018-09-04T09:57:09.679Z,96531.05
2018-09-04T09:59:36.997Z,96530.98
2018-09-04T10:02:12.976Z,96527.30
2018-09-04T10:04:40.703Z,96527.41
2018-09-04T10:07:08.129Z,96527.84
2018-09-04T10:09:35.488Z,96527.16
2018-09-04T10:12:02.873Z,96527.52
2018-09-04T10:14:30.210Z,96523.20
2018-09-04T10:16:57.597Z,96521.55
2018-09-04T10:19:24.927Z,96527.63
2018-09-04T10:21:52.300Z,96525.08
2018-09-04T10:24:23.340Z,96524.91
2018-09-04T10:26:50.718Z,96525.56
2018-09-04T10:29:17.998Z,96520.10
2018-09-04T10:31:45.530Z,96530.20
2018-09-04T10:34:14.702Z,96525.34
2018-09-04T10:36:42.303Z,96525.89
2018-09-04T10:40:14.393Z,96529.03
2018-09-04T10:42:41.658Z,96528.03
2018-09-04T10:45:13.542Z,96524.62
2018-09-04T10:47:40.841Z,96513.83
2018-09-04T10:50:08.170Z,96517.87
2018-09-04T10:52:35.408Z,96512.00
2018-09-04T10:55:02.781Z,96519.30
2018-09-04T10:57:31.609Z,96520.08
2018-09-04T10:59:58.886Z,96515.39
2018-09-04T11:02:35.175Z,96516.59
2018-09-04T11:05:03.320Z,96515.59
2018-09-04T11:07:30.655Z,96520.46
2018-09-04T11:09:58.016Z,96513.16
2018-09-04T11:12:25.244Z,96509.39
2018-09-04T11:14:52.515Z,96512.52
2018-09-04T11:17:19.717Z,96510.91
2018-09-04T11:19:46.980Z,96508.56
2018-09-04T11:22:14.265Z,96509.05
2018-09-04T11:24:41.474Z,96509.47
2018-09-04T11:27:08.839Z,96506.14
2018-09-04T11:29:36.216Z,96505.30
2018-09-04T11:32:03.678Z,96500.22
2018-09-04T11:34:31.036Z,96501.45
2018-09-04T11:36:58.329Z,96498.12
2018-09-04T11:39:25.611Z,96493.14
2018-09-04T11:41:52.868Z,96499.19
2018-09-04T11:44:20.183Z,96495.03
2018-09-04T11:46:47.457Z,96498.54
2018-09-04T11:49:14.685Z,96499.51
2018-09-04T11:51:41.924Z,96500.52
2018-09-04T11:54:09.268Z,96494.30
2018-09-04T11:56:40.326Z,96503.31
2018-09-04T11:59:07.742Z,96503.52
2018-09-04T12:01:36.072Z,96501.00
2018-09-04T12:04:03.451Z,96478.59
2018-09-04T12:06:30.982Z,96503.34
2018-09-04T12:08:58.272Z,96499.20
2018-09-04T12:11:25.572Z,96504.09
2018-09-04T12:13:52.919Z,96510.61
2018-09-04T12:16:20.202Z,96503.23
2018-09-04T12:18:47.551Z,96499.94
2018-09-04T12:21:14.915Z,96499.40
2018-09-04T12:23:42.252Z,96500.52
2018-09-04T12:26:10.726Z,96503.35
2018-09-04T12:28:37.967Z,96500.43
2018-09-04T12:31:11.767Z,96513.36
2018-09-04T12:33:39.066Z,96502.73
2018-09-04T12:36:06.457Z,96503.86
2018-09-04T12:38:38.243Z,96492.72
2018-09-04T12:41:11.319Z,96491.05
2018-09-04T12:43:38.634Z,96491.28
2018-09-04T12:46:06.370Z,96490.59
2018-09-04T12:48:33.609Z,96485.44
2018-09-04T12:51:01.992Z,96493.26
2018-09-04T12:53:30.843Z,96491.72
2018-09-04T12:55:58.247Z,96489.06
2018-09-04T12:58:25.493Z,96491.97
2018-09-04T13:00:53.622Z,96492.09
2018-09-04T13:03:23.065Z,96492.09
2018-09-04T13:05:50.407Z,96492.11
2018-09-04T13:08:18.714Z,96484.81
2018-09-04T13:10:45.991Z,96489.23
2018-09-04T13:13:13.263Z,96491.30
2018-09-04T13:15:42.265Z,96488.55
2018-09-04T13:18:09.659Z,96490.81
2018-09-04T13:20:36.975Z,96492.16
2018-09-04T13:23:04.546Z,96488.78
2018-09-04T13:25:31.859Z,96484.83
2018-09-04T13:27:59.176Z,96482.05
2018-09-04T13:30:26.489Z,96483.88
2018-09-04T13:32:53.715Z,96483.06
2018-09-04T13:35:21.014Z,96480.01
2018-09-04T13:37:48.603Z,96474.75
2018-09-04T13:40:16.052Z,96476.38
2018-09-04T13:42:43.376Z,96474.47
2018-09-04T13:45:10.622Z,96475.58
2018-09-04T13:47:37.930Z,96479.58
2018-09-04T13:50:05.292Z,96471.53
2018-09-04T13:52:32.872Z,96479.56
2018-09-04T13:55:00.166Z,96480.04
2018-09-04T13:57:28.461Z,96481.56
2018-09-04T13:59:55.978Z,96477.47
2018-09-04T14:02:23.327Z,96478.69
2018-09-04T14:04:50.637Z,96474.77
2018-09-04T14:07:17.935Z,96473.99
2018-09-04T14:09:45.261Z,96478.33
2018-09-04T14:12:12.934Z,96472.67
2018-09-04T14:14:40.214Z,96472.77
2018-09-04T14:17:09.795Z,96466.39
2018-09-04T14:19:37.164Z,96471.67
2018-09-04T14:22:04.682Z,96462.22
2018-09-04T14:24:31.934Z,96469.33
2018-09-04T14:26:59.299Z,96470.77
2018-09-04T14:30:15.026Z,96470.91
2018-09-04T14:31:53.874Z,96464.74
2018-09-04T14:34:21.403Z,96460.51
2018-09-04T14:36:48.926Z,96460.27
2018-09-04T14:39:16.074Z,96462.06
2018-09-04T14:41:43.396Z,96464.38
2018-09-04T14:44:10.857Z,96469.09
2018-09-04T14:46:38.138Z,96470.61
2018-09-04T14:49:16.366Z,96458.09
2018-09-04T14:51:43.594Z,96463.82
2018-09-04T14:54:11.319Z,96460.53
2018-09-04T14:56:39.401Z,96463.91
2018-09-04T14:59:06.756Z,96462.28
2018-09-04T15:01:34.035Z,96459.10
2018-09-04T15:04:01.366Z,96462.69
2018-09-04T15:06:28.677Z,96462.15
2018-09-04T15:08:56.024Z,96456.62
2018-09-04T15:11:23.352Z,96450.81
2018-09-04T15:13:50.626Z,96449.81
2018-09-04T15:16:17.886Z,96452.20
2018-09-04T15:18:45.248Z,96451.22
2018-09-04T15:21:12.565Z,96453.31
2018-09-04T15:23:39.937Z,96456.34
2018-09-04T15:26:07.280Z,96448.74
2018-09-04T15:28:34.554Z,96448.89
2018-09-04T15:31:01.899Z,96450.02
2018-09-04T15:33:29.248Z,96453.56
2018-09-04T15:35:56.514Z,96449.26
2018-09-04T15:38:23.780Z,96448.99
2018-09-04T15:40:51.131Z,96455.70
2018-09-04T15:43:18.484Z,96457.23
2018-09-04T15:45:45.759Z,96457.66
2018-09-04T15:48:12.994Z,96456.38
2018-09-04T15:50:40.295Z,96447.47
2018-09-04T15:53:07.628Z,96449.97
2018-09-04T15:55:34.882Z,96458.09
2018-09-04T15:58:02.175Z,96452.80
2018-09-04T16:00:29.485Z,96455.06
2018-09-04T16:02:56.952Z,96454.88
2018-09-04T16:05:24.330Z,96462.14
2018-09-04T16:07:51.610Z,96458.58
2018-09-04T16:10:18.956Z,96458.98
2018-09-04T16:12:46.443Z,96457.75
2018-09-04T16:15:13.772Z,96458.20
2018-09-04T16:17:41.093Z,96464.26
2018-09-04T16:20:08.401Z,96462.91
2018-09-04T16:22:35.768Z,96467.75
2018-09-04T16:25:03.041Z,96471.87
2018-09-04T16:27:30.310Z,96475.33
2018-09-04T16:29:57.621Z,96466.20
2018-09-04T16:32:24.879Z,96471.38
2018-09-04T16:34:52.235Z,96469.29
2018-09-04T16:37:19.577Z,96471.25
2018-09-04T16:39:46.897Z,96472.52
2018-09-04T16:45:06.743Z,96476.53
2018-09-04T16:47:34.052Z,96473.64
2018-09-04T16:50:01.329Z,96474.06
2018-09-04T16:52:28.644Z,96474.08
2018-09-04T16:54:56.171Z,96481.77
2018-09-04T16:57:23.875Z,96482.63
2018-09-04T16:59:51.154Z,96482.50
2018-09-04T17:02:18.796Z,96482.64
2018-09-04T17:04:46.120Z,96480.61
2018-09-04T17:07:13.396Z,96480.83
2018-09-04T17:09:40.872Z,96477.57
2018-09-04T17:12:08.177Z,96488.62
2018-09-04T17:14:35.378Z,96483.12
2018-09-04T17:18:32.236Z,96490.62
2018-09-04T17:20:59.433Z,96494.33
2018-09-04T17:23:26.698Z,96501.76
2018-09-04T17:25:53.969Z,96499.59
2018-09-04T17:28:21.209Z,96502.72
2018-09-04T17:30:48.514Z,96511.63
2018-09-04T17:33:15.907Z,96506.97
2018-09-04T17:35:43.242Z,96509.53
2018-09-04T17:38:10.526Z,96507.45
2018-09-04T17:40:37.775Z,96512.84
2018-09-04T17:43:08.681Z,96507.88
2018-09-04T17:45:36.237Z,96516.08
2018-09-04T17:48:03.795Z,96506.52
2018-09-04T17:50:31.097Z,96513.71
2018-09-04T17:52:58.386Z,96507.12
2018-09-04T17:55:25.669Z,96516.80
2018-09-04T17:57:52.982Z,96519.50
2018-09-04T18:00:20.290Z,96498.15
2018-09-04T18:02:47.560Z,96517.59
2018-09-04T18:05:14.919Z,96528.59
2018-09-04T18:07:42.197Z,96526.95
2018-09-04T18:10:09.496Z,96530.33
2018-09-04T18:12:36.764Z,96527.39
2018-09-04T18:15:04.471Z,96536.67
2018-09-04T18:17:41.365Z,96532.62
2018-09-04T18:20:08.667Z,96537.62
2018-09-04T18:22:35.947Z,96538.77
2018-09-04T18:25:03.309Z,96536.78
2018-09-04T18:27:37.522Z,96544.23
2018-09-04T18:30:07.939Z,96544.77
2018-09-04T18:32:35.421Z,96549.55
2018-09-04T18:35:02.800Z,96549.08
2018-09-04T18:37:30.203Z,96555.70
2018-09-04T18:39:57.555Z,96560.33
2018-09-04T18:42:24.863Z,96562.33
2018-09-04T18:44:52.175Z,96570.27
2018-09-04T18:47:19.490Z,96573.93
2018-09-04T18:49:46.781Z,96576.91
2018-09-04T18:52:14.072Z,96581.88
2018-09-04T18:54:41.462Z,96584.98
2018-09-04T18:57:08.836Z,96587.77
2018-09-04T18:59:36.260Z,96588.89
2018-09-04T19:02:03.628Z,96595.34
2018-09-04T19:04:30.969Z,96593.03
2018-09-04T19:06:58.734Z,96590.03
2018-09-04T19:09:26.155Z,96599.09
2018-09-04T19:11:53.512Z,96599.88
2018-09-04T19:14:20.985Z,96598.23
2018-09-04T19:16:48.360Z,96598.89
2018-09-04T19:19:15.678Z,96596.42
2018-09-04T19:21:42.980Z,96598.86
2018-09-04T19:24:10.505Z,96597.84
2018-09-04T19:26:37.861Z,96595.16
2018-09-04T19:29:05.476Z,96594.16
2018-09-04T19:31:32.785Z,96594.75
2018-09-04T19:34:00.218Z,96598.09
2018-09-04T19:36:29.207Z,96595.71
2018-09-04T19:38:56.510Z,96598.02
2018-09-04T19:41:23.841Z,96596.33
2018-09-04T19:43:51.203Z,96591.36
2018-09-04T19:46:18.470Z,96594.30
2018-09-04T19:48:45.822Z,96593.27
2018-09-04T19:51:13.261Z,96598.55
2018-09-04T19:53:41.663Z,96601.82
2018-09-04T19:56:08.988Z,96598.12
2018-09-04T19:58:36.307Z,96603.38
2018-09-04T20:01:03.965Z,96605.02
2018-09-04T20:03:31.276Z,96601.80
2018-09-04T20:06:00.649Z,96609.20
2018-09-04T20:08:28.129Z,96600.83
2018-09-04T20:10:55.469Z,96602.72
2018-09-04T20:13:22.860Z,96606.67
2018-09-04T20:15:50.121Z,96603.30
2018-09-04T20:18:17.421Z,96609.17
2018-09-04T20:20:44.904Z,96610.56
2018-09-04T20:23:12.230Z,96609.02
2018-09-04T20:25:39.499Z,96616.39
2018-09-04T20:28:06.830Z,96616.66
2018-09-04T20:30:34.131Z,96623.66
2018-09-04T20:40:36.730Z,96630.00
2018-09-04T20:43:03.989Z,96625.84
2018-09-04T20:45:31.265Z,96636.09
2018-09-04T20:47:58.582Z,96632.97
2018-09-04T20:50:26.039Z,96636.22
2018-09-04T20:52:53.424Z,96625.88
2018-09-04T20:55:20.714Z,96629.12
2018-09-04T20:57:59.644Z,96631.23
2018-09-04T21:00:38.548Z,96626.42
2018-09-04T21:03:17.516Z,96631.90
2018-09-04T21:05:57.239Z,96624.46
2018-09-04T21:08:36.890Z,96623.61
2018-09-04T21:11:04.224Z,96620.44
2018-09-04T21:13:31.473Z,96614.61
2018-09-04T21:15:58.826Z,96619.65
2018-09-04T21:18:26.069Z,96616.81
2018-09-04T21:20:53.448Z,96619.78
2018-09-04T21:23:20.804Z,96618.30
2018-09-04T21:25:48.168Z,96614.47
2018-09-04T21:28:15.489Z,96614.61
2018-09-04T21:30:42.816Z,96614.03
2018-09-04T21:33:10.136Z,96612.88
2018-09-04T21:35:37.504Z,96615.34
2018-09-04T21:38:05.207Z,96613.61
2018-09-04T21:40:32.491Z,96618.27
2018-09-04T21:42:59.790Z,96621.63
2018-09-04T21:45:27.101Z,96613.05
2018-09-04T21:47:54.305Z,96616.41
2018-09-04T21:50:21.668Z,96619.13
2018-09-04T21:52:49.002Z,96621.56
2018-09-04T21:55:28.932Z,96628.78
2018-09-04T21:57:56.152Z,96621.72
2018-09-04T22:00:27.345Z,96619.56
2018-09-04T22:02:55.835Z,96618.42
2018-09-04T22:05:24.103Z,96618.23
2018-09-04T22:07:51.734Z,96622.56
2018-09-04T22:10:19.011Z,96620.69
2018-09-04T22:12:46.279Z,96613.55
2018-09-04T22:15:13.544Z,96621.03
2018-09-04T22:17:40.901Z,96616.73
2018-09-04T22:20:08.303Z,96621.72
2018-09-04T22:22:35.725Z,96609.47
2018-09-04T22:25:03.081Z,96607.30
2018-09-04T22:27:30.476Z,96606.07
2018-09-04T22:29:57.732Z,96605.99
2018-09-04T22:32:25.110Z,96610.92
2018-09-04T22:34:52.428Z,96605.22
2018-09-04T22:37:19.737Z,96609.59
2018-09-04T22:39:47.056Z,96609.89
2018-09-04T22:42:14.365Z,96615.92
2018-09-04T22:44:41.619Z,96618.13
2018-09-04T22:47:08.865Z,96611.73
2018-09-04T22:49:36.752Z,96608.48
2018-09-04T22:52:04.213Z,96614.25
2018-09-04T22:54:31.507Z,96615.00
2018-09-04T22:56:58.819Z,96613.69
2018-09-04T22:59:26.956Z,96608.28
2018-09-04T23:01:54.296Z,96613.53
2018-09-04T23:04:21.880Z,96614.00
2018-09-04T23:06:49.268Z,96610.77
2018-09-04T23:09:16.589Z,96609.45
2018-09-04T23:11:43.886Z,96615.19
2018-09-04T23:14:11.198Z,96613.74
2018-09-04T23:16:38.443Z,96620.81
2018-09-04T23:19:06.034Z,96613.67
2018-09-04T23:21:33.331Z,96617.46
2018-09-04T23:24:00.754Z,96620.97
2018-09-04T23:26:28.201Z,96626.05
2018-09-04T23:28:55.423Z,96616.68
2018-09-04T23:31:22.754Z,96619.49
2018-09-04T23:33:50.059Z,96623.53
2018-09-04T23:36:17.677Z,96622.00
2018-09-04T23:38:44.958Z,96621.44
2018-09-04T23:41:12.296Z,96616.45
2018-09-04T23:43:39.654Z,96611.97
2018-09-04T23:46:06.926Z,96615.75
2018-09-04T23:48:34.278Z,96614.72
2018-09-04T23:51:02.338Z,96613.84
2018-09-04T23:53:29.753Z,96608.24
2018-09-04T23:55:56.995Z,96605.86
2018-09-04T23:58:24.312Z,96606.36
